Time;durP1;ratioP1;P1;durP2;ratioP2;P2;SDS_P1;SDS_P2;PMS_P1;PMS_P2;Temp;Humidity;BMP_temperature;BMP_pressure;BME280_temperature;BME280_humidity;BME280_pressure;Samples;Min_cycle;Max_cycle;Signal;HPM_P1;HPM_P2
2021/01/26 09:09:24;;;;;;;39.03;17.10;;;;;;;-0.18;78.83;98072.14;120058;1110;104369;31
2021/01/26 09:11:58;;;;;;;36.50;17.27;;;;;;;-0.10;79.25;98070.95;120105;1151;104880;-68
2021/01/26 09:14:51;;;;;;;32.53;16.20;;;;;;;-0.04;78.83;98070.68;119913;1151;104430;-69
2021/01/26 09:17:17;;;;;;;31.50;14.70;;;;;;;0.02;78.87;98072.99;120059;1150;104471;-67
2021/01/26 09:19:51;;;;;;;33.37;15.17;;;;;;;0.08;79.23;98074.50;120039;1150;104503;-70
2021/01/26 09:22:24;;;;;;;33.43;14.77;;;;;;;0.09;79.23;98070.96;119999;1150;104387;-67
2021/01/26 09:25:00;;;;;;;31.50;14.63;;;;;;;0.13;78.98;98080.37;120066;1150;104357;-69
2021/01/26 09:27:36;;;;;;;31.90;15.43;;;;;;;0.11;78.91;98083.03;120052;1150;104387;-70
2021/01/26 09:30:05;;;;;;;29.97;14.17;;;;;;;0.11;79.12;98088.27;120118;1151;104415;-71
2021/01/26 09:32:35;;;;;;;31.10;14.13;;;;;;;0.09;78.87;98081.42;120023;1151;104850;-72
2021/01/26 09:35:31;;;;;;;32.17;13.80;;;;;;;0.14;78.65;98093.36;119967;1149;104426;-71
2021/01/26 09:38:17;;;;;;;28.80;13.73;;;;;;;0.18;79.07;98098.45;119944;1151;104453;-70
2021/01/26 09:41:01;;;;;;;31.27;14.40;;;;;;;0.18;78.25;98108.91;120031;1150;104426;-71
2021/01/26 09:43:39;;;;;;;25.63;11.33;;;;;;;0.17;78.87;98107.21;120079;1151;104449;-71
2021/01/26 09:46:14;;;;;;;28.97;11.27;;;;;;;0.17;78.71;98110.70;120054;1150;104509;-70
2021/01/26 09:48:48;;;;;;;28.10;12.60;;;;;;;0.17;78.89;98115.06;119897;1151;104536;-70
2021/01/26 09:51:27;;;;;;;27.03;11.77;;;;;;;0.19;78.37;98107.99;120040;1150;104416;-70
2021/01/26 09:54:03;;;;;;;22.90;9.53;;;;;;;0.23;78.29;98120.02;119984;1151;104458;-70
2021/01/26 09:56:33;;;;;;;27.07;11.43;;;;;;;0.21;78.24;98125.30;119966;1150;104443;-70
2021/01/26 09:59:03;;;;;;;27.10;10.70;;;;;;;0.19;78.88;98128.92;119984;1150;104549;-70
2021/01/26 10:01:33;;;;;;;27.17;13.03;;;;;;;0.15;78.12;98130.84;120075;1150;104487;-69
2021/01/26 10:04:05;;;;;;;27.70;12.40;;;;;;;0.16;78.41;98122.07;120027;1150;104463;-70
2021/01/26 10:06:34;;;;;;;24.87;10.47;;;;;;;0.17;78.35;98126.39;119969;1151;104472;-70
2021/01/26 10:09:22;;;;;;;28.97;13.73;;;;;;;0.18;78.23;98121.98;119978;1150;104467;-71
2021/01/26 10:11:53;;;;;;;25.97;11.70;;;;;;;0.24;78.42;98133.01;120156;1150;104464;-70
2021/01/26 10:14:28;;;;;;;25.63;11.60;;;;;;;0.26;78.23;98118.09;119973;1150;104407;-70
2021/01/26 10:17:00;;;;;;;27.33;11.87;;;;;;;0.28;78.46;98129.34;119981;1151;104531;-71
2021/01/26 10:19:34;;;;;;;27.53;11.23;;;;;;;0.28;78.27;98116.26;120096;1150;104391;-70
2021/01/26 10:22:13;;;;;;;31.60;13.75;;;;;;;0.29;78.19;98122.36;119925;1151;104423;-69
2021/01/26 10:24:40;;;;;;;28.43;12.87;;;;;;;0.34;78.64;98116.89;120064;1150;104526;-69
2021/01/26 10:27:26;;;;;;;29.33;13.43;;;;;;;0.32;78.30;98123.97;119999;1150;104851;-70
2021/01/26 10:30:28;;;;;;;32.70;14.65;;;;;;;0.32;78.76;98123.97;119970;1151;104480;-70
2021/01/26 10:32:55;;;;;;;32.43;13.93;;;;;;;0.33;78.21;98128.28;119957;1150;104451;-69
2021/01/26 10:35:34;;;;;;;32.83;14.70;;;;;;;0.29;78.51;98122.36;120010;1150;104383;-70
2021/01/26 10:38:29;;;;;;;29.87;14.27;;;;;;;0.25;78.66;98123.41;119959;1150;104506;-72
2021/01/26 10:41:26;;;;;;;31.53;14.73;;;;;;;0.22;78.46;98119.15;119948;1151;104458;-70
2021/01/26 10:44:00;;;;;;;34.03;16.97;;;;;;;0.19;78.00;98114.09;120137;1150;104357;-70
2021/01/26 10:46:36;;;;;;;38.63;19.43;;;;;;;0.25;78.34;98126.03;120125;1150;104429;-70
2021/01/26 10:49:23;;;;;;;42.93;18.83;;;;;;;0.26;78.34;98125.11;120088;1151;104458;-69
2021/01/26 10:51:54;;;;;;;32.73;15.77;;;;;;;0.27;78.75;98134.66;119973;1151;104379;-70
2021/01/26 10:54:22;;;;;;;35.92;17.62;;;;;;;0.25;78.65;98133.87;119952;1151;104396;-70
2021/01/26 10:56:54;;;;;;;39.10;19.03;;;;;;;0.22;78.16;98131.39;120033;1150;104429;-70
2021/01/26 10:59:21;;;;;;;40.80;19.83;;;;;;;0.19;78.73;98132.40;120034;1150;104574;-70
2021/01/26 11:01:50;;;;;;;37.30;18.13;;;;;;;0.15;78.34;98141.30;119928;1151;104497;-70
2021/01/26 11:04:22;;;;;;;43.27;22.23;;;;;;;0.12;78.60;98150.11;119980;1151;104617;-70
2021/01/26 11:06:49;;;;;;;42.87;20.23;;;;;;;0.13;78.09;98150.97;120099;1151;104450;-70
2021/01/26 11:09:19;;;;;;;37.23;18.67;;;;;;;0.17;78.39;98154.29;120052;1151;104348;-70
2021/01/26 11:11:46;;;;;;;34.73;15.33;;;;;;;0.29;78.25;98154.58;120074;1150;105046;-69
2021/01/26 11:14:14;;;;;;;39.93;19.63;;;;;;;0.40;78.17;98146.27;120093;1151;104439;-69
2021/01/26 11:16:41;;;;;;;38.37;18.93;;;;;;;0.53;78.26;98148.29;120082;1150;104603;-68
2021/01/26 11:19:15;;;;;;;35.68;17.65;;;;;;;0.61;78.16;98146.17;120149;1150;104425;-70
2021/01/26 11:21:45;;;;;;;40.67;18.00;;;;;;;0.70;78.01;98150.11;120030;1150;104423;-70
2021/01/26 11:24:14;;;;;;;38.87;19.03;;;;;;;0.81;78.39;98152.25;120131;1150;104416;-70
2021/01/26 11:26:41;;;;;;;35.03;15.17;;;;;;;0.94;78.40;98155.95;120090;1150;104391;-68
2021/01/26 11:29:08;;;;;;;37.30;18.50;;;;;;;0.97;78.37;98147.95;120097;1150;104426;-69
2021/01/26 11:31:35;;;;;;;36.58;18.98;;;;;;;0.98;78.17;98148.81;120040;1150;104429;-68
2021/01/26 11:34:04;;;;;;;38.53;18.07;;;;;;;0.98;78.30;98148.81;120062;1150;104505;-69
2021/01/26 11:36:32;;;;;;;34.40;17.00;;;;;;;0.95;77.95;98146.34;120079;1150;104474;-69
2021/01/26 11:38:59;;;;;;;37.33;16.33;;;;;;;0.92;78.01;98151.72;119978;1150;104380;-69
2021/01/26 11:42:07;;;;;;;32.37;14.97;;;;;;;0.78;77.76;98152.39;124293;1103;104204;-70
2021/01/26 11:44:37;;;;;;;35.33;16.73;;;;;;;0.71;78.15;98159.66;124199;1106;104373;-70
2021/01/26 11:47:04;;;;;;;28.63;14.20;;;;;;;0.68;78.00;98146.72;124316;1105;104334;-70
2021/01/26 11:49:32;;;;;;;32.57;15.33;;;;;;;0.62;77.63;98144.38;124313;1105;104294;-70
2021/01/26 11:52:01;;;;;;;33.00;15.97;;;;;;;0.56;77.85;98153.38;124384;1105;104641;-70
2021/01/26 11:54:28;;;;;;;30.40;12.73;;;;;;;0.56;77.79;98141.16;124257;1105;104248;-70
2021/01/26 11:56:57;;;;;;;30.33;14.93;;;;;;;0.65;78.12;98144.24;124281;1105;104203;-70
2021/01/26 11:59:25;;;;;;;34.47;15.50;;;;;;;0.79;77.71;98139.21;124221;1105;104249;-72
2021/01/26 12:01:53;;;;;;;33.35;15.80;;;;;;;0.92;78.14;98141.25;124238;1105;104409;-71
2021/01/26 12:04:20;;;;;;;29.63;13.33;;;;;;;0.99;77.88;98138.25;124225;1105;104174;-71
2021/01/26 12:06:47;;;;;;;31.40;15.87;;;;;;;1.09;78.22;98143.88;124197;1105;104249;-72
2021/01/26 12:09:16;;;;;;;32.10;14.30;;;;;;;1.16;78.20;98142.66;124291;1105;104182;-71
2021/01/26 12:11:43;;;;;;;31.57;14.50;;;;;;;1.16;77.80;98142.66;124333;1105;104251;-71
2021/01/26 12:14:11;;;;;;;32.20;15.33;;;;;;;1.14;77.96;98138.44;124371;1105;104187;-73
2021/01/26 12:16:38;;;;;;;32.07;15.63;;;;;;;1.11;78.02;98135.97;124203;1103;104172;-72
2021/01/26 12:19:06;;;;;;;31.23;13.27;;;;;;;1.11;78.50;98134.18;124233;1104;104229;-73
2021/01/26 12:21:34;;;;;;;29.43;13.10;;;;;;;1.12;77.65;98130.64;124277;1105;104178;-74
2021/01/26 12:24:01;;;;;;;30.17;13.37;;;;;;;1.12;77.69;98133.25;124263;1105;104181;-73
2021/01/26 12:26:28;;;;;;;31.70;13.60;;;;;;;1.06;77.98;98138.79;124224;1105;104181;-71
2021/01/26 12:28:55;;;;;;;30.83;14.93;;;;;;;1.00;77.56;98137.33;124221;1105;104181;-72
2021/01/26 12:31:22;;;;;;;31.23;14.10;;;;;;;0.97;77.78;98147.95;124298;1105;104210;-69
2021/01/26 12:33:50;;;;;;;30.52;14.58;;;;;;;1.01;77.35;98135.58;124239;1105;104239;-70
2021/01/26 12:36:17;;;;;;;27.53;13.80;;;;;;;1.04;77.52;98143.25;124225;1106;104159;-70
2021/01/26 12:38:46;;;;;;;29.75;13.25;;;;;;;1.06;77.83;98154.50;124184;1105;104235;-71
2021/01/26 12:41:13;;;;;;;29.13;13.33;;;;;;;1.01;77.39;98157.36;124102;1105;104709;-70
2021/01/26 12:43:40;;;;;;;32.53;14.73;;;;;;;0.93;77.60;98167.34;124154;1105;104175;-71
2021/01/26 12:46:07;;;;;;;30.05;12.85;;;;;;;0.91;77.51;98155.27;124348;1105;104695;-70
2021/01/26 12:48:35;;;;;;;32.55;15.55;;;;;;;0.92;77.73;98164.81;124327;1105;104646;-70
2021/01/26 12:51:04;;;;;;;32.27;16.20;;;;;;;0.95;77.48;98169.91;124249;1105;104258;-70
2021/01/26 12:53:31;;;;;;;30.00;12.47;;;;;;;0.92;77.41;98159.58;124304;1105;104213;-71
2021/01/26 12:55:58;;;;;;;30.07;13.73;;;;;;;0.85;77.20;98151.15;124293;1105;104277;-72
2021/01/26 12:58:25;;;;;;;29.67;13.37;;;;;;;0.82;77.44;98146.92;124301;1105;104211;-72
2021/01/26 13:00:52;;;;;;;31.90;14.63;;;;;;;0.84;77.75;98167.78;124276;1105;104242;-70
2021/01/26 13:03:21;;;;;;;28.87;12.30;;;;;;;0.85;77.58;98156.38;124286;1104;104303;-71
2021/01/26 13:05:50;;;;;;;27.93;11.63;;;;;;;0.84;77.64;98152.07;124202;1103;104190;-71
2021/01/26 13:08:17;;;;;;;31.23;13.47;;;;;;;0.87;77.40;98154.55;124270;1105;104149;-71
2021/01/26 13:10:44;;;;;;;29.87;13.53;;;;;;;0.87;77.49;98149.30;124287;1105;104262;-71
2021/01/26 13:13:11;;;;;;;33.60;14.37;;;;;;;0.86;77.32;98158.95;124298;1105;104187;-70
2021/01/26 13:15:39;;;;;;;30.97;14.03;;;;;;;0.86;77.31;98163.32;124250;1105;104315;-70
2021/01/26 13:18:06;;;;;;;30.77;14.38;;;;;;;0.89;77.40;98160.56;124262;1105;104245;-70
2021/01/26 13:20:35;;;;;;;31.17;14.77;;;;;;;0.88;77.54;98164.96;124264;1105;104168;-70
2021/01/26 13:23:03;;;;;;;37.10;17.10;;;;;;;0.95;77.32;98165.50;124244;1105;104152;-70
2021/01/26 13:25:31;;;;;;;28.90;12.30;;;;;;;0.95;77.53;98170.74;124293;1105;104178;-69
2021/01/26 13:28:00;;;;;;;32.13;13.63;;;;;;;0.93;77.29;98164.73;124327;1105;104214;-70
2021/01/26 13:30:31;;;;;;;28.27;13.00;;;;;;;0.88;76.95;98157.11;124271;1104;104149;-70
2021/01/26 13:32:58;;;;;;;32.63;15.80;;;;;;;0.82;77.34;98157.39;124293;1105;104307;-69
2021/01/26 13:35:32;;;;;;;30.07;12.87;;;;;;;0.77;77.20;98169.02;124279;1105;104152;-70
2021/01/26 13:37:59;;;;;;;31.47;14.53;;;;;;;0.68;77.16;98163.28;124311;1105;104255;-70
2021/01/26 13:40:29;;;;;;;33.33;15.77;;;;;;;0.66;77.04;98172.11;124288;1105;104341;-70
2021/01/26 13:42:56;;;;;;;33.83;14.47;;;;;;;0.61;77.42;98161.88;124320;1105;104239;-70
2021/01/26 13:45:28;;;;;;;35.37;17.00;;;;;;;0.56;77.10;98149.02;124295;1105;104181;-69
2021/01/26 13:47:57;;;;;;;34.25;16.20;;;;;;;0.58;76.83;98160.26;124293;1105;104258;-71
2021/01/26 13:50:30;;;;;;;36.57;16.87;;;;;;;0.59;76.95;98163.71;124345;1103;104181;-70
2021/01/26 13:52:58;;;;;;;36.50;16.27;;;;;;;0.57;77.15;98170.78;124284;1105;104242;-70
2021/01/26 13:55:28;;;;;;;33.50;14.47;;;;;;;0.53;77.42;98171.84;124245;1105;104256;-70
2021/01/26 13:57:58;;;;;;;35.00;13.93;;;;;;;0.50;77.10;98174.59;124304;1105;104312;-71
2021/01/26 14:00:30;;;;;;;32.77;14.40;;;;;;;0.47;77.07;98172.12;124231;1105;104253;-72
2021/01/26 14:03:01;;;;;;;30.57;14.03;;;;;;;0.48;77.08;98184.28;124322;1105;104182;-71
2021/01/26 14:05:30;;;;;;;33.80;16.40;;;;;;;0.50;77.10;98182.45;124315;1105;104172;-70
2021/01/26 14:08:01;;;;;;;33.97;16.60;;;;;;;0.55;77.25;98185.70;124253;1105;104178;-69
2021/01/26 14:10:34;;;;;;;34.90;16.07;;;;;;;0.59;76.87;98195.11;124277;1105;104188;-71
2021/01/26 14:13:02;;;;;;;34.30;17.45;;;;;;;0.59;77.02;98187.27;124200;1105;104146;-69
2021/01/26 14:15:32;;;;;;;36.00;18.20;;;;;;;0.62;77.37;98194.11;124248;1103;104685;-70
2021/01/26 14:18:03;;;;;;;31.73;13.80;;;;;;;0.62;76.71;98191.49;124254;1105;104197;-70
2021/01/26 14:20:31;;;;;;;33.97;16.43;;;;;;;0.56;76.76;98196.12;124222;1105;104275;-70
2021/01/26 14:22:58;;;;;;;33.10;15.17;;;;;;;0.55;77.13;98193.55;124273;1105;104207;-71
2021/01/26 14:25:27;;;;;;;30.60;14.43;;;;;;;0.52;76.86;98191.08;124285;1105;104577;-70
2021/01/26 14:27:53;;;;;;;37.97;15.93;;;;;;;0.49;76.89;98194.70;124246;1103;104152;-71
2021/01/26 14:30:23;;;;;;;31.70;14.97;;;;;;;0.45;77.00;98206.22;124307;1105;104319;-68
2021/01/26 14:32:52;;;;;;;29.83;14.03;;;;;;;0.39;76.93;98196.89;123961;1105;104240;-69
2021/01/26 14:35:26;;;;;;;37.87;17.60;;;;;;;0.38;76.99;98203.04;124244;1103;104157;-69
2021/01/26 14:37:57;;;;;;;33.53;15.67;;;;;;;0.40;76.88;98209.05;124271;1103;104227;-71
2021/01/26 14:40:26;;;;;;;36.47;17.97;;;;;;;0.43;76.93;98208.05;124344;1105;104262;-70
2021/01/26 14:42:55;;;;;;;33.75;16.40;;;;;;;0.42;77.04;98212.42;124274;1104;104271;-69
2021/01/26 14:45:25;;;;;;;38.03;19.27;;;;;;;0.38;77.12;98213.50;124260;1103;104655;-70
2021/01/26 14:47:52;;;;;;;36.90;18.03;;;;;;;0.35;76.93;98208.41;124137;1105;104255;-70
2021/01/26 14:50:24;;;;;;;34.83;16.77;;;;;;;0.32;76.21;98210.30;124300;1105;104261;-71
2021/01/26 14:52:54;;;;;;;38.67;19.40;;;;;;;0.27;76.79;98210.51;124276;1105;104216;-69
2021/01/26 14:55:21;;;;;;;37.80;17.60;;;;;;;0.27;76.96;98215.74;124274;1105;104239;-71
2021/01/26 14:57:48;;;;;;;40.70;18.47;;;;;;;0.24;76.88;98215.88;124247;1105;104323;-71
2021/01/26 15:00:18;;;;;;;38.73;19.97;;;;;;;0.22;77.09;98217.70;124297;1105;104169;-70
2021/01/26 15:02:47;;;;;;;36.67;17.33;;;;;;;0.19;76.85;98223.94;124206;1105;104175;-71
2021/01/26 15:05:16;;;;;;;34.03;15.33;;;;;;;0.14;76.54;98224.13;124202;1105;104188;-70
2021/01/26 15:07:43;;;;;;;32.40;14.53;;;;;;;0.11;76.56;98218.19;124207;1103;104344;-70
2021/01/26 15:10:14;;;;;;;41.05;20.75;;;;;;;0.08;76.55;98224.38;124272;1105;104220;-71
2021/01/26 15:12:41;;;;;;;41.00;21.63;;;;;;;0.05;77.14;98229.74;124203;1105;104185;-70
2021/01/26 15:15:18;;;;;;;41.10;19.43;;;;;;;0.01;77.00;98225.56;124206;1106;104307;-71
2021/01/26 15:17:46;;;;;;;40.23;19.05;;;;;;;-0.02;76.61;98230.95;124185;1105;104548;-72
2021/01/26 15:20:20;;;;;;;42.17;18.93;;;;;;;-0.04;76.59;98231.00;124241;1105;104303;-72
2021/01/26 15:22:49;;;;;;;43.90;21.83;;;;;;;-0.04;76.83;98235.39;124209;1105;104299;-71
2021/01/26 15:25:16;;;;;;;48.57;24.37;;;;;;;-0.02;76.51;98229.17;124272;1103;104051;-72
2021/01/26 15:27:44;;;;;;;42.07;21.50;;;;;;;-0.02;76.91;98241.41;124286;1104;104180;-72
2021/01/26 15:30:16;;;;;;;57.17;27.40;;;;;;;-0.02;76.70;98244.86;124279;1105;104235;-71
2021/01/26 15:32:50;;;;;;;54.73;27.27;;;;;;;-0.02;76.37;98241.41;124208;1105;104292;-68
2021/01/26 15:35:22;;;;;;;53.43;26.10;;;;;;;-0.03;76.50;98245.77;124199;1105;104274;-72
2021/01/26 15:37:57;;;;;;;52.13;26.63;;;;;;;-0.02;76.66;98246.64;123974;1105;104235;-73
2021/01/26 15:40:28;;;;;;;44.63;22.60;;;;;;;-0.01;76.72;98251.78;124090;1104;104275;-71
2021/01/26 15:42:58;;;;;;;46.23;22.20;;;;;;;-0.05;76.63;98242.38;124202;1105;104152;-72
2021/01/26 15:45:25;;;;;;;50.60;23.80;;;;;;;0.02;77.03;98247.34;124254;1105;104315;-75
2021/01/26 15:47:52;;;;;;;52.43;27.77;;;;;;;0.16;77.54;98247.61;124248;1104;104255;-70
2021/01/26 15:50:22;;;;;;;46.07;23.87;;;;;;;0.29;76.99;98248.75;124245;1105;104210;-75
2021/01/26 15:52:48;;;;;;;50.37;25.07;;;;;;;0.27;77.14;98250.58;124224;1103;104176;-73
2021/01/26 15:55:16;;;;;;;46.70;22.73;;;;;;;0.21;77.05;98253.46;124290;1105;104284;-75
2021/01/26 15:57:43;;;;;;;45.63;22.50;;;;;;;0.15;76.47;98248.52;124173;1105;104204;-75
2021/01/26 16:00:18;;;;;;;51.70;26.10;;;;;;;0.09;76.64;98251.40;124130;1105;104251;-76
2021/01/26 16:02:47;;;;;;;44.50;21.03;;;;;;;0.04;76.88;98250.74;124255;1103;104355;-75
2021/01/26 16:05:16;;;;;;;50.40;26.63;;;;;;;-0.02;76.94;98257.93;124256;1105;104203;-73
2021/01/26 16:07:43;;;;;;;45.37;21.97;;;;;;;-0.06;76.38;98251.12;124301;1105;104217;-75
2021/01/26 16:10:12;;;;;;;47.53;21.67;;;;;;;-0.07;76.85;98261.67;124134;1105;104364;-75
2021/01/26 16:12:39;;;;;;;44.73;22.30;;;;;;;-0.14;76.68;98268.89;124306;1105;104621;-77
2021/01/26 16:15:13;;;;;;;50.20;25.50;;;;;;;-0.20;76.46;98276.98;124247;1105;104261;-77
2021/01/26 16:17:43;;;;;;;51.17;25.30;;;;;;;-0.22;76.89;98271.84;124209;1106;104262;-76
2021/01/26 16:20:14;;;;;;;55.70;28.10;;;;;;;-0.22;76.77;98277.06;124293;1105;104270;-75
2021/01/26 16:22:41;;;;;;;52.13;26.67;;;;;;;-0.23;76.37;98277.14;124222;1105;104328;-75
2021/01/26 16:25:15;;;;;;;51.63;24.87;;;;;;;-0.24;76.20;98276.28;124253;1105;104637;-75
2021/01/26 16:27:44;;;;;;;44.00;21.20;;;;;;;-0.23;76.81;98283.20;124228;1105;104243;-74
2021/01/26 16:30:14;;;;;;;52.57;27.00;;;;;;;-0.25;76.67;98290.26;124180;1105;104714;-74
2021/01/26 16:32:42;;;;;;;49.80;26.03;;;;;;;-0.27;76.24;98279.02;124281;1105;104242;-76
2021/01/26 16:35:12;;;;;;;57.07;30.10;;;;;;;-0.25;76.20;98292.04;124126;1105;104223;-74
2021/01/26 16:37:40;;;;;;;60.47;31.37;;;;;;;-0.24;76.58;98294.58;124237;1105;104173;-72
2021/01/26 16:40:20;;;;;;;45.43;21.97;;;;;;;-0.23;76.75;98296.28;124154;1105;104147;-73
2021/01/26 16:42:53;;;;;;;47.13;23.13;;;;;;;-0.27;76.68;98293.86;124125;1105;104255;-71
2021/01/26 16:45:23;;;;;;;48.03;23.23;;;;;;;-0.31;76.12;98295.73;124327;1103;104255;-72
2021/01/26 16:47:52;;;;;;;49.03;24.97;;;;;;;-0.32;76.59;98294.03;124123;1105;104175;-74
2021/01/26 16:50:33;;;;;;;48.93;25.67;;;;;;;-0.35;76.93;98297.63;124264;1105;104194;-73
2021/01/26 16:53:02;;;;;;;48.93;24.37;;;;;;;-0.36;76.89;98292.45;124260;1105;104152;-75
2021/01/26 16:55:31;;;;;;;44.35;20.95;;;;;;;-0.40;76.54;98298.71;124259;1105;104230;-74
2021/01/26 16:57:58;;;;;;;50.17;26.30;;;;;;;-0.42;76.52;98303.18;124308;1105;104265;-76
2021/01/26 17:00:33;;;;;;;57.07;28.87;;;;;;;-0.41;76.86;98302.27;124220;1105;104454;-75
2021/01/26 17:03:13;;;;;;;50.77;27.93;;;;;;;-0.40;76.87;98303.94;124287;1105;104242;-74
2021/01/26 17:05:43;;;;;;;46.17;23.10;;;;;;;-0.38;76.89;98308.20;124214;1105;104254;-76
2021/01/26 17:08:13;;;;;;;53.80;25.43;;;;;;;-0.38;76.26;98308.20;124205;1105;104153;-74
2021/01/26 17:10:40;;;;;;;46.20;22.23;;;;;;;-0.42;76.28;98306.63;124182;1106;104232;-74
2021/01/26 17:13:08;;;;;;;51.87;27.77;;;;;;;-0.44;76.61;98313.67;124144;1105;104255;-74
2021/01/26 17:15:40;;;;;;;51.47;26.83;;;;;;;-0.48;76.58;98306.87;124193;1106;104181;-74
2021/01/26 17:18:09;;;;;;;52.93;27.60;;;;;;;-0.51;76.05;98310.47;124275;1105;104608;-74
2021/01/26 17:20:41;;;;;;;49.00;25.40;;;;;;;-0.50;76.18;98309.56;124145;1105;104185;-73
2021/01/26 17:23:11;;;;;;;51.57;27.13;;;;;;;-0.55;76.73;98310.63;124087;1104;104592;-75
2021/01/26 17:25:41;;;;;;;50.00;24.97;;;;;;;-0.57;76.59;98309.84;124238;1105;104334;-74
2021/01/26 17:28:09;;;;;;;55.13;27.77;;;;;;;-0.61;76.82;98314.34;124188;1105;104236;-74
2021/01/26 17:30:39;;;;;;;51.40;27.83;;;;;;;-0.65;76.37;98312.77;124247;1103;104251;-73
2021/01/26 17:33:08;;;;;;;53.23;26.60;;;;;;;-0.67;76.35;98314.58;124165;1105;104255;-75
2021/01/26 17:35:36;;;;;;;61.73;31.67;;;;;;;-0.70;76.91;98312.95;124257;1104;104182;-73
2021/01/26 17:38:04;;;;;;;49.43;25.40;;;;;;;-0.73;76.18;98312.20;124172;1105;104200;-74
2021/01/26 17:40:32;;;;;;;60.07;30.90;;;;;;;-0.79;76.27;98318.53;124131;1105;104166;-74
2021/01/26 17:43:00;;;;;;;59.07;31.87;;;;;;;-0.80;76.82;98303.77;124074;1105;104258;-73
2021/01/26 17:45:27;;;;;;;52.33;27.77;;;;;;;-0.81;76.74;98321.18;124158;1105;104159;-73
2021/01/26 17:47:57;;;;;;;52.57;25.70;;;;;;;-0.85;76.22;98322.23;124151;1106;104248;-72
2021/01/26 17:50:26;;;;;;;52.10;27.33;;;;;;;-0.87;76.60;98326.66;124119;1105;104334;-74
2021/01/26 17:52:54;;;;;;;55.47;27.93;;;;;;;-0.86;76.51;98320.53;124249;1105;104259;-74
2021/01/26 17:55:22;;;;;;;61.47;32.50;;;;;;;-0.84;76.80;98330.91;124273;1104;104262;-73
2021/01/26 17:57:50;;;;;;;60.93;33.13;;;;;;;-0.84;76.66;98336.99;124306;1105;104666;-73
2021/01/26 18:00:21;;;;;;;62.70;33.50;;;;;;;-0.82;76.12;98336.92;124308;1105;104153;-72
2021/01/26 18:02:48;;;;;;;65.03;35.13;;;;;;;-0.80;76.41;98345.55;124320;1105;104271;-73
2021/01/26 18:05:17;;;;;;;64.83;34.97;;;;;;;-0.76;76.54;98341.91;124258;1105;104242;-73
2021/01/26 18:07:46;;;;;;;66.97;34.27;;;;;;;-0.73;76.27;98338.32;124316;1106;104179;-72
2021/01/26 18:10:14;;;;;;;64.73;34.97;;;;;;;-0.72;76.69;98337.41;124276;1103;104675;-71
2021/01/26 18:12:41;;;;;;;61.83;32.57;;;;;;;-0.71;76.61;98333.89;124296;1105;104184;-74
2021/01/26 18:15:14;;;;;;;60.43;33.37;;;;;;;-0.71;76.76;98337.38;124267;1105;104246;-69
2021/01/26 18:17:40;;;;;;;60.47;32.77;;;;;;;-0.71;76.48;98341.73;124234;1105;104174;-73
2021/01/26 18:20:10;;;;;;;62.57;34.20;;;;;;;-0.73;76.49;98331.35;124290;1105;104152;-73
2021/01/26 18:22:39;;;;;;;67.97;35.53;;;;;;;-0.72;76.56;98332.19;124180;1103;104258;-73
2021/01/26 18:25:08;;;;;;;59.57;33.67;;;;;;;-0.72;76.80;98332.19;124275;1105;104152;-73
2021/01/26 18:27:36;;;;;;;65.07;35.30;;;;;;;-0.73;75.91;98327.88;124294;1103;104283;-73
2021/01/26 18:30:06;;;;;;;67.10;38.20;;;;;;;-0.75;77.00;98335.78;124258;1103;104258;-72
2021/01/26 18:32:35;;;;;;;69.33;36.13;;;;;;;-0.72;76.73;98342.63;124255;1105;104158;-70
2021/01/26 18:35:06;;;;;;;63.85;35.20;;;;;;;-0.74;76.55;98340.09;124220;1105;104153;-71
2021/01/26 18:37:34;;;;;;;62.47;35.43;;;;;;;-0.72;76.91;98342.63;124256;1105;104185;-73
2021/01/26 18:40:01;;;;;;;67.80;36.97;;;;;;;-0.72;76.88;98346.11;124246;1105;104214;-72
2021/01/26 18:42:29;;;;;;;62.57;32.03;;;;;;;-0.72;76.85;98340.02;124232;1105;104248;-71
2021/01/26 18:44:56;;;;;;;62.43;33.10;;;;;;;-0.72;76.83;98348.73;124197;1105;104237;-73
2021/01/26 18:47:24;;;;;;;60.10;33.27;;;;;;;-0.72;76.57;98345.25;124269;1105;104255;-73
2021/01/26 18:49:51;;;;;;;66.13;35.43;;;;;;;-0.75;75.92;98348.84;124264;1105;104163;-71
2021/01/26 18:52:20;;;;;;;56.73;31.53;;;;;;;-0.76;76.70;98352.36;124265;1105;104285;-74
2021/01/26 18:54:47;;;;;;;58.27;30.37;;;;;;;-0.77;76.59;98358.49;124150;1106;104410;-73
2021/01/26 18:57:14;;;;;;;60.93;30.87;;;;;;;-0.79;76.77;98358.53;124306;1105;104217;-72
2021/01/26 18:59:42;;;;;;;64.23;34.53;;;;;;;-0.79;76.62;98350.70;124273;1105;104364;-72
2021/01/26 19:02:10;;;;;;;69.10;35.70;;;;;;;-0.77;76.39;98359.33;124281;1105;104172;-72
2021/01/26 19:04:37;;;;;;;64.83;33.87;;;;;;;-0.76;76.09;98361.03;124322;1105;104314;-72
2021/01/26 19:07:04;;;;;;;64.60;34.08;;;;;;;-0.76;76.54;98362.81;124289;1103;104163;-74
2021/01/26 19:09:35;;;;;;;66.93;34.03;;;;;;;-0.75;77.36;98359.29;124324;1103;104181;-72
2021/01/26 19:12:08;;;;;;;70.23;37.27;;;;;;;-0.74;76.66;98363.60;124312;1105;104294;-73
2021/01/26 19:14:36;;;;;;;69.67;36.70;;;;;;;-0.76;76.02;98361.03;124307;1105;104153;-73
2021/01/26 19:17:05;;;;;;;66.90;36.73;;;;;;;-0.75;76.53;98364.51;124318;1103;104328;-73
2021/01/26 19:19:33;;;;;;;68.30;36.63;;;;;;;-0.74;76.25;98379.27;124291;1106;104210;-74
2021/01/26 19:22:01;;;;;;;70.63;37.13;;;;;;;-0.73;76.47;98367.91;124297;1106;104229;-73
2021/01/26 19:24:30;;;;;;;70.37;38.10;;;;;;;-0.73;76.48;98364.44;124252;1103;104637;-72
2021/01/26 19:26:57;;;;;;;69.20;35.37;;;;;;;-0.75;76.36;98370.56;124323;1105;104213;-72
2021/01/26 19:29:24;;;;;;;75.30;39.63;;;;;;;-0.73;77.20;98375.75;124387;1105;104246;-72
2021/01/26 19:31:55;;;;;;;67.82;38.53;;;;;;;-0.72;76.85;98369.63;124176;1105;104222;-72
2021/01/26 19:34:26;;;;;;;76.43;40.30;;;;;;;-0.73;76.21;98374.88;124266;1105;104261;-72
2021/01/26 19:36:53;;;;;;;76.53;40.03;;;;;;;-0.76;76.67;98370.64;124176;1105;104239;-71
2021/01/26 19:39:20;;;;;;;80.90;42.63;;;;;;;-0.78;76.63;98373.30;124197;1104;104284;-71
2021/01/26 19:41:47;;;;;;;71.47;39.30;;;;;;;-0.77;76.91;98376.77;124166;1105;104657;-72
2021/01/26 19:44:14;;;;;;;70.90;36.00;;;;;;;-0.79;77.02;98370.75;124072;1105;104714;-73
2021/01/26 19:46:41;;;;;;;68.07;36.17;;;;;;;-0.84;76.12;98373.55;124068;1105;104258;-75
2021/01/26 19:49:08;;;;;;;75.12;39.70;;;;;;;-0.90;76.46;98379.00;124138;1105;104252;-75
2021/01/26 19:51:35;;;;;;;71.30;38.10;;;;;;;-0.96;76.75;98390.50;124126;1103;104255;-74
2021/01/26 19:54:07;;;;;;;63.10;33.60;;;;;;;-0.98;76.03;98379.26;124312;1105;104402;-74
2021/01/26 19:56:36;;;;;;;58.03;32.50;;;;;;;-0.98;76.72;98375.81;124267;1105;104258;-75
2021/01/26 19:59:05;;;;;;;57.13;30.00;;;;;;;-0.98;76.68;98381.87;124365;1105;104232;-74
2021/01/26 20:01:34;;;;;;;66.10;34.23;;;;;;;-0.98;77.32;98381.87;124360;1105;104156;-74
2021/01/26 20:04:04;;;;;;;58.00;30.30;;;;;;;-0.95;76.51;98384.37;124316;1105;104216;-74
2021/01/26 20:06:32;;;;;;;58.60;30.57;;;;;;;-0.95;76.63;98386.14;124301;1105;104849;-75
2021/01/26 20:09:00;;;;;;;59.57;31.10;;;;;;;-0.97;76.69;98378.35;124316;1105;104219;-75
2021/01/26 20:11:27;;;;;;;58.03;30.43;;;;;;;-0.93;76.42;98389.55;124302;1105;105325;-74
2021/01/26 20:13:54;;;;;;;58.43;29.63;;;;;;;-0.93;76.51;98386.94;124289;1105;104258;-74
2021/01/26 20:16:21;;;;;;;55.60;29.80;;;;;;;-0.96;76.36;98387.05;124745;1105;104188;-74
